»·PEaware :: N8979T KSNA-KCMA

N8979T :: KSNA-KCMA

FLIGHT INFORMATION

Flight Status: Arrived
Operator: Privately registered:
United States
More flights under this callsign
Pilot: Brett J. (1348)
Aircraft: Unknown
(PIPA)
More flights by this aircraft type
Origin: KSNA John Wayne-Orange Co
United States
Destination: KCMA Camarillo
United States
More flights between these airports :: More routes between these airports
Route: SLI V23 POPPR SMO125R SMO VNY
File this flight plan on PilotEdge
Remarks: CSTP24
Altitude:
(Current/Filed)
4,000ft
Speed:
(Current/Filed)
190kts
Departed: 01-Dec-18 06:47 PM
Arrived: 01-Dec-18 07:19 PM
Distance/Time
Traveled:
69nm/0:32
Distance/Time
To Go:
Arrived

Flight Plot

Page will automatically refresh every two minutes.


Map Options




Map Legend


Flown Route
Filed Route
Departure Airport
Arrival Airport
Navaid (VOR, NDB)
Fix

Horizontal Profiles

Position Reports

Time Latitude Longitude Heading Altitude Ground
Speed
01-Dec-18 18:34 33.675825 -117.871067 220 59ft 0kts
01-Dec-18 18:35 33.675825 -117.871067 220 59ft 0kts
01-Dec-18 18:36 33.675825 -117.871067 220 59ft 0kts
01-Dec-18 18:37 33.675825 -117.871067 220 59ft 0kts
01-Dec-18 18:38 33.675825 -117.871067 220 59ft 0kts
01-Dec-18 18:39 33.675825 -117.871067 220 59ft 0kts
01-Dec-18 18:40 33.675825 -117.871067 220 59ft 0kts
01-Dec-18 18:41 33.675825 -117.871067 220 59ft 0kts
01-Dec-18 18:42 33.675825 -117.871067 220 59ft 0kts
01-Dec-18 18:43 33.675825 -117.871067 220 59ft 0kts
01-Dec-18 18:44 33.675825 -117.871067 220 59ft 0kts
01-Dec-18 18:45 33.675638 -117.870960 120 59ft 6kts
01-Dec-18 18:46 33.677582 -117.869129 26 59ft 15kts
01-Dec-18 18:47 33.681249 -117.866557 103 59ft 6kts
01-Dec-18 18:48 33.681179 -117.866372 128 59ft 0kts
01-Dec-18 18:49 33.681179 -117.866372 128 59ft 0kts
01-Dec-18 18:50 33.677051 -117.867984 207 59ft 83kts
01-Dec-18 18:51 33.650426 -117.895969 231 1112ft 151kts
01-Dec-18 18:52 33.625270 -117.933161 231 1995ft 144kts
01-Dec-18 18:53 33.599805 -117.970308 231 2949ft 157kts
01-Dec-18 18:54 33.598219 -118.013902 320 3925ft 173kts
01-Dec-18 18:55 33.639286 -118.052349 316 3993ft 198kts
01-Dec-18 18:56 33.680620 -118.096397 313 3990ft 201kts
01-Dec-18 18:57 33.720882 -118.142343 311 3990ft 200kts
01-Dec-18 18:58 33.760325 -118.188959 310 3990ft 198kts
01-Dec-18 18:59 33.794721 -118.230270 309 3988ft 161kts
01-Dec-18 19:00 33.824955 -118.267012 309 3989ft 151kts
01-Dec-18 19:01 33.855727 -118.300729 316 4008ft 149kts
01-Dec-18 19:02 33.887534 -118.332210 315 4008ft 147kts
01-Dec-18 19:03 33.918868 -118.363785 317 4005ft 147kts
01-Dec-18 19:04 33.950137 -118.395419 318 4006ft 149kts
01-Dec-18 19:05 33.984595 -118.430319 319 4006ft 173kts
01-Dec-18 19:06 34.026816 -118.458071 349 4005ft 183kts
01-Dec-18 19:07 34.076852 -118.466912 350 4004ft 185kts
01-Dec-18 19:08 34.127003 -118.475449 350 4005ft 186kts
01-Dec-18 19:09 34.177193 -118.487186 319 3995ft 185kts
01-Dec-18 19:10 34.180528 -118.548634 271 4003ft 190kts
01-Dec-18 19:11 34.181016 -118.612546 275 4004ft 189kts
01-Dec-18 19:12 34.183606 -118.673733 276 4007ft 184kts
01-Dec-18 19:13 34.187211 -118.733905 276 4009ft 176kts
01-Dec-18 19:14 34.191238 -118.791753 275 4016ft 169kts
01-Dec-18 19:15 34.195248 -118.847582 274 3865ft 166kts
01-Dec-18 19:16 34.200012 -118.901546 276 2818ft 157kts
01-Dec-18 19:17 34.205028 -118.953411 275 1807ft 155kts
01-Dec-18 19:18 34.209325 -119.001178 273 1509ft 116kts
01-Dec-18 19:19 34.212182 -119.030197 277 812ft 79kts
01-Dec-18 19:20 34.213500 -119.056181 269 643ft 50kts
01-Dec-18 19:21 34.213673 -119.070969 272 310ft 44kts
01-Dec-18 19:22 34.213840 -119.086635 270 89ft 35kts
01-Dec-18 19:23 34.211193 -119.089636 177 80ft 26kts
01-Dec-18 19:24 34.210571 -119.089543 67 80ft 0kts

Navigation Log

Ident Type
Flight plan parsing failed, navigation log unavailable